createdAt,value
2019-03-27T00:00:30.497Z,0
2019-03-27T00:01:10.895Z,0
2019-03-27T00:01:51.300Z,0
2019-03-27T00:02:31.725Z,0
2019-03-27T00:03:12.151Z,0
2019-03-27T00:03:52.600Z,0
2019-03-27T00:04:32.984Z,0
2019-03-27T00:05:13.398Z,0
2019-03-27T00:05:53.815Z,0
2019-03-27T00:06:34.230Z,0
2019-03-27T00:07:14.650Z,0
2019-03-27T00:07:55.066Z,0
2019-03-27T00:08:35.490Z,0
2019-03-27T00:09:15.921Z,0
2019-03-27T00:09:56.387Z,0
2019-03-27T00:10:36.788Z,0
2019-03-27T00:11:17.185Z,0
2019-03-27T00:11:57.594Z,0
2019-03-27T00:12:38.050Z,0
2019-03-27T00:13:18.499Z,0
2019-03-27T00:13:58.899Z,0
2019-03-27T00:14:39.331Z,0
2019-03-27T00:15:19.752Z,0
2019-03-27T00:16:00.137Z,0
2019-03-27T00:16:40.566Z,0
2019-03-27T00:17:20.991Z,0
2019-03-27T00:18:01.441Z,0
2019-03-27T00:18:41.818Z,0
2019-03-27T00:19:22.245Z,0
2019-03-27T00:20:02.654Z,0
2019-03-27T00:20:43.090Z,0
2019-03-27T00:21:23.502Z,0
2019-03-27T00:22:03.919Z,0
2019-03-27T00:22:44.353Z,0
2019-03-27T00:23:24.781Z,0
2019-03-27T00:24:05.193Z,0
2019-03-27T00:24:45.631Z,0
2019-03-27T00:25:26.054Z,0
2019-03-27T00:26:06.498Z,0
2019-03-27T00:26:46.915Z,0
2019-03-27T00:27:27.384Z,0
2019-03-27T00:28:07.816Z,0
2019-03-27T00:28:48.226Z,0
2019-03-27T00:29:28.660Z,0
2019-03-27T00:30:09.072Z,0
2019-03-27T00:30:49.522Z,0
2019-03-27T00:31:29.910Z,0
2019-03-27T00:32:10.372Z,0
2019-03-27T00:32:50.749Z,0
2019-03-27T00:33:31.162Z,0
2019-03-27T00:34:11.600Z,0
2019-03-27T00:34:52.017Z,0
2019-03-27T00:35:32.444Z,0
2019-03-27T00:36:12.923Z,0
2019-03-27T00:36:53.336Z,0
2019-03-27T00:37:33.724Z,0
2019-03-27T00:38:14.161Z,0
2019-03-27T00:38:54.565Z,0
2019-03-27T00:39:34.995Z,0
2019-03-27T00:40:15.433Z,0
2019-03-27T00:40:55.825Z,0
2019-03-27T00:41:36.246Z,0
2019-03-27T00:42:16.676Z,0
2019-03-27T00:42:57.122Z,0
2019-03-27T00:43:37.554Z,0
2019-03-27T00:44:17.965Z,0
2019-03-27T00:44:58.366Z,0
2019-03-27T00:45:38.804Z,0
2019-03-27T00:46:19.196Z,0
2019-03-27T00:46:59.610Z,0
2019-03-27T00:47:40.058Z,0
2019-03-27T00:48:20.462Z,0
2019-03-27T00:49:00.949Z,0
2019-03-27T00:49:41.303Z,0
2019-03-27T00:50:21.906Z,0
2019-03-27T00:51:02.309Z,0
2019-03-27T00:51:42.747Z,0
2019-03-27T00:52:23.175Z,0
2019-03-27T00:53:03.591Z,0
2019-03-27T00:53:44.024Z,0
2019-03-27T00:54:24.422Z,0
2019-03-27T00:55:04.854Z,0
2019-03-27T00:55:45.279Z,0
2019-03-27T00:56:25.699Z,0
2019-03-27T00:57:06.176Z,0
2019-03-27T00:57:46.559Z,0
2019-03-27T00:58:26.980Z,0
2019-03-27T00:59:07.427Z,0
2019-03-27T00:59:47.809Z,0
2019-03-27T01:00:28.232Z,0
2019-03-27T01:01:08.651Z,0
2019-03-27T01:01:49.082Z,0
2019-03-27T01:02:29.487Z,0
2019-03-27T01:03:09.898Z,0
2019-03-27T01:03:50.312Z,0
2019-03-27T01:04:30.734Z,0
2019-03-27T01:05:11.161Z,0
2019-03-27T01:05:51.592Z,0
2019-03-27T01:06:32.023Z,0
2019-03-27T01:07:12.453Z,0
2019-03-27T01:07:52.875Z,0
2019-03-27T01:08:33.277Z,0
2019-03-27T01:09:13.704Z,0
2019-03-27T01:09:54.142Z,0
2019-03-27T01:10:34.559Z,0
2019-03-27T01:11:15.000Z,0
2019-03-27T01:11:55.418Z,0
2019-03-27T01:12:35.847Z,0
2019-03-27T01:13:16.260Z,0
2019-03-27T01:13:56.685Z,0
2019-03-27T01:14:37.128Z,0
2019-03-27T01:15:17.585Z,0
2019-03-27T01:15:57.948Z,0
2019-03-27T01:16:38.350Z,0
2019-03-27T01:17:18.794Z,0
2019-03-27T01:17:59.225Z,0
2019-03-27T01:18:39.646Z,0
2019-03-27T01:19:20.082Z,0
2019-03-27T01:20:00.510Z,0
2019-03-27T01:20:40.938Z,0
2019-03-27T01:21:21.332Z,0
2019-03-27T01:22:01.761Z,0
2019-03-27T01:22:42.165Z,0
2019-03-27T01:23:22.572Z,0
2019-03-27T01:24:02.999Z,0
2019-03-27T01:24:43.398Z,0
2019-03-27T01:25:23.857Z,0
2019-03-27T01:26:04.220Z,0
2019-03-27T01:26:44.649Z,0
2019-03-27T01:27:25.071Z,0
2019-03-27T01:28:05.485Z,0
2019-03-27T01:28:45.915Z,0
2019-03-27T01:29:26.268Z,0
2019-03-27T01:30:06.697Z,0
2019-03-27T01:30:47.087Z,0
2019-03-27T01:31:27.510Z,0
2019-03-27T01:32:07.933Z,0
2019-03-27T01:32:48.313Z,0
2019-03-27T01:33:28.714Z,0
2019-03-27T01:34:09.127Z,0
2019-03-27T01:34:49.567Z,0
2019-03-27T01:35:29.987Z,0
2019-03-27T01:36:10.405Z,0
2019-03-27T01:36:50.836Z,0
2019-03-27T01:37:31.259Z,0
2019-03-27T01:38:11.692Z,0
2019-03-27T01:38:52.110Z,0
2019-03-27T01:39:32.573Z,0
2019-03-27T01:40:12.960Z,0
2019-03-27T01:40:53.395Z,0
2019-03-27T01:41:33.820Z,0
2019-03-27T01:42:14.227Z,0
2019-03-27T01:42:54.630Z,0
2019-03-27T01:43:35.081Z,0
2019-03-27T01:44:15.476Z,0
2019-03-27T01:44:55.902Z,0
2019-03-27T01:45:36.313Z,0
2019-03-27T01:46:16.739Z,0
2019-03-27T01:46:57.190Z,0
2019-03-27T01:47:37.636Z,0
2019-03-27T01:48:18.038Z,0
2019-03-27T01:48:58.444Z,0
2019-03-27T01:49:38.863Z,0
2019-03-27T01:50:19.301Z,0
2019-03-27T01:50:59.740Z,0
2019-03-27T01:51:40.157Z,0
2019-03-27T01:52:20.554Z,0
2019-03-27T01:53:00.981Z,0
2019-03-27T01:53:41.387Z,0
2019-03-27T01:54:21.818Z,0
2019-03-27T01:55:02.240Z,0
2019-03-27T01:55:42.656Z,0
2019-03-27T01:56:23.079Z,0
2019-03-27T01:57:03.517Z,0
2019-03-27T01:57:43.932Z,0
2019-03-27T01:58:24.410Z,0
2019-03-27T01:59:04.836Z,0
2019-03-27T01:59:45.272Z,0
2019-03-27T02:00:25.696Z,0
2019-03-27T02:01:06.137Z,0
2019-03-27T02:01:46.511Z,0
2019-03-27T02:02:26.945Z,0
2019-03-27T02:03:07.356Z,0
2019-03-27T02:03:47.758Z,0
2019-03-27T02:04:28.222Z,0
2019-03-27T02:05:08.639Z,0
2019-03-27T02:05:49.036Z,0
2019-03-27T02:06:29.466Z,0
2019-03-27T02:07:09.868Z,0
2019-03-27T02:07:50.290Z,0
2019-03-27T02:08:30.735Z,0
2019-03-27T02:09:11.158Z,0
2019-03-27T02:09:51.578Z,0
2019-03-27T02:10:32.058Z,0
2019-03-27T02:11:12.413Z,0
2019-03-27T02:11:52.834Z,0
2019-03-27T02:12:33.250Z,0
2019-03-27T02:13:13.708Z,0
2019-03-27T02:13:54.145Z,0
2019-03-27T02:14:34.569Z,0
2019-03-27T02:15:14.980Z,0
2019-03-27T02:16:06.082Z,0
2019-03-27T02:16:35.817Z,0
2019-03-27T02:17:16.257Z,0
2019-03-27T02:17:56.673Z,0
2019-03-27T02:18:37.088Z,0
2019-03-27T02:19:17.518Z,0
2019-03-27T02:19:57.937Z,0
2019-03-27T02:20:38.369Z,0
2019-03-27T02:21:18.770Z,0
2019-03-27T02:21:59.181Z,0
2019-03-27T02:22:39.617Z,0
2019-03-27T02:23:20.012Z,0
2019-03-27T02:24:00.450Z,0
2019-03-27T02:24:40.873Z,0
2019-03-27T02:25:21.292Z,0
2019-03-27T02:26:01.730Z,0
2019-03-27T02:26:42.110Z,0
2019-03-27T02:27:22.558Z,0
2019-03-27T02:28:02.947Z,0
2019-03-27T02:28:43.360Z,0
2019-03-27T02:29:23.746Z,0
2019-03-27T02:30:04.169Z,0
2019-03-27T02:30:44.588Z,0
2019-03-27T02:31:25.036Z,0
2019-03-27T02:32:05.433Z,0
2019-03-27T02:32:45.913Z,0
2019-03-27T02:33:26.327Z,0
2019-03-27T02:34:06.739Z,0
2019-03-27T02:34:47.185Z,0
2019-03-27T02:35:27.568Z,0
2019-03-27T02:36:08.011Z,0
2019-03-27T02:36:48.512Z,0
2019-03-27T02:37:28.834Z,0
2019-03-27T02:38:09.293Z,0
2019-03-27T02:38:49.662Z,0
2019-03-27T02:39:30.102Z,0
2019-03-27T02:40:10.517Z,0
2019-03-27T02:40:50.966Z,0
2019-03-27T02:41:31.371Z,0
2019-03-27T02:42:11.781Z,0
2019-03-27T02:42:52.175Z,0
2019-03-27T02:43:32.594Z,0
2019-03-27T02:44:13.073Z,0
2019-03-27T02:44:53.445Z,0
2019-03-27T02:45:33.868Z,0
2019-03-27T02:46:24.173Z,0
2019-03-27T02:46:54.671Z,0
2019-03-27T02:47:35.102Z,0
2019-03-27T02:48:15.530Z,0
2019-03-27T02:48:55.973Z,0
2019-03-27T02:49:36.415Z,0
2019-03-27T02:50:16.838Z,0
2019-03-27T02:50:57.269Z,0
2019-03-27T02:51:37.740Z,0
2019-03-27T02:52:18.177Z,0
2019-03-27T02:52:58.600Z,0
2019-03-27T02:53:39.023Z,0
2019-03-27T02:54:19.447Z,0
2019-03-27T02:54:59.864Z,0
2019-03-27T02:55:40.293Z,0
2019-03-27T02:56:20.718Z,0
2019-03-27T02:57:01.150Z,0
2019-03-27T02:57:41.577Z,0
2019-03-27T03:00:09.597Z,0
2019-03-27T03:00:50.028Z,0
2019-03-27T03:01:30.446Z,0
2019-03-27T03:02:10.862Z,0
2019-03-27T03:02:51.268Z,0
2019-03-27T03:03:31.700Z,0
2019-03-27T03:04:12.119Z,0
2019-03-27T03:04:52.551Z,0
2019-03-27T03:05:33.078Z,0
2019-03-27T03:06:13.517Z,0
2019-03-27T03:06:53.915Z,0
2019-03-27T03:07:34.313Z,0
2019-03-27T03:08:14.759Z,0
2019-03-27T03:08:55.188Z,0
2019-03-27T03:09:35.587Z,0
2019-03-27T03:10:16.014Z,0
2019-03-27T03:10:56.467Z,0
2019-03-27T03:11:36.839Z,0
2019-03-27T03:12:17.255Z,0
2019-03-27T03:12:57.671Z,0
2019-03-27T03:13:38.077Z,0
2019-03-27T03:14:18.491Z,0
2019-03-27T03:14:58.895Z,0
2019-03-27T03:15:39.368Z,0
2019-03-27T03:16:19.753Z,0
2019-03-27T03:17:00.142Z,0
2019-03-27T03:17:40.561Z,0
2019-03-27T03:18:21.094Z,0
2019-03-27T03:19:01.394Z,0
2019-03-27T03:19:41.819Z,0
2019-03-27T03:20:22.283Z,0
2019-03-27T03:21:02.664Z,0
2019-03-27T03:21:43.068Z,0
2019-03-27T03:22:23.593Z,0
2019-03-27T03:23:04.039Z,0
2019-03-27T03:23:44.450Z,0
2019-03-27T03:24:24.857Z,0
2019-03-27T03:25:05.227Z,0
2019-03-27T03:25:45.647Z,0
2019-03-27T03:26:26.082Z,0
2019-03-27T03:27:06.491Z,0
2019-03-27T03:27:46.898Z,0
2019-03-27T03:28:27.335Z,0
2019-03-27T03:29:07.759Z,0
2019-03-27T03:29:48.126Z,0
2019-03-27T03:30:28.521Z,0
2019-03-27T03:31:09.066Z,0
2019-03-27T03:31:49.337Z,0
2019-03-27T03:32:29.729Z,0
2019-03-27T03:33:10.278Z,0
2019-03-27T03:33:50.555Z,0
2019-03-27T03:34:30.968Z,0
2019-03-27T03:35:11.395Z,0
2019-03-27T03:35:51.806Z,0
2019-03-27T03:36:32.241Z,0
2019-03-27T03:37:12.660Z,0
2019-03-27T03:37:53.102Z,0
2019-03-27T03:38:33.483Z,0
2019-03-27T03:39:13.907Z,0
2019-03-27T03:39:54.297Z,0
2019-03-27T03:40:34.694Z,0
2019-03-27T03:41:15.122Z,0
2019-03-27T03:41:55.521Z,0
2019-03-27T03:42:35.927Z,0
2019-03-27T03:43:16.310Z,0
2019-03-27T03:43:56.720Z,0
2019-03-27T03:44:37.132Z,0
2019-03-27T03:45:17.577Z,0
2019-03-27T03:45:58.008Z,0
2019-03-27T03:46:38.411Z,0
2019-03-27T03:47:18.813Z,0
2019-03-27T03:47:59.233Z,0
2019-03-27T03:48:39.667Z,0
2019-03-27T03:49:20.098Z,0
2019-03-27T03:50:00.537Z,0
2019-03-27T03:50:40.923Z,0
2019-03-27T03:51:21.355Z,0
2019-03-27T03:52:01.803Z,0
2019-03-27T03:52:45.723Z,0
2019-03-27T03:53:22.631Z,0
2019-03-27T03:54:03.059Z,0
2019-03-27T03:54:43.517Z,0
2019-03-27T03:55:23.908Z,0
2019-03-27T03:56:04.307Z,0
2019-03-27T03:56:44.740Z,0
2019-03-27T03:57:25.171Z,0
2019-03-27T03:58:05.585Z,0
2019-03-27T03:58:46.011Z,0
2019-03-27T03:59:26.418Z,0
2019-03-27T04:00:06.860Z,0
2019-03-27T04:00:47.236Z,0
2019-03-27T04:01:27.673Z,0
2019-03-27T04:02:08.105Z,0
2019-03-27T04:02:48.540Z,0
2019-03-27T04:03:28.976Z,0
2019-03-27T04:04:09.399Z,0
2019-03-27T04:04:49.823Z,0
2019-03-27T04:05:30.232Z,0
2019-03-27T04:06:10.659Z,0
2019-03-27T04:06:51.072Z,0
2019-03-27T04:07:31.493Z,0
2019-03-27T04:08:11.927Z,0
2019-03-27T04:08:52.360Z,0
2019-03-27T04:09:32.787Z,0
2019-03-27T04:10:13.216Z,0
2019-03-27T04:10:53.638Z,0
2019-03-27T04:11:34.071Z,0
2019-03-27T04:12:14.484Z,0
2019-03-27T04:12:54.913Z,0
2019-03-27T04:13:35.328Z,0
2019-03-27T04:14:15.845Z,0
2019-03-27T04:14:56.163Z,0
2019-03-27T04:15:36.574Z,0
2019-03-27T04:16:16.982Z,0
2019-03-27T04:16:57.417Z,0
2019-03-27T04:17:37.845Z,0
2019-03-27T04:18:18.260Z,0
2019-03-27T04:18:58.829Z,0
2019-03-27T04:19:39.271Z,0
2019-03-27T04:20:19.680Z,0
2019-03-27T04:21:00.105Z,0
2019-03-27T04:21:40.529Z,0
2019-03-27T04:22:20.948Z,0
2019-03-27T04:23:01.382Z,0
2019-03-27T04:23:41.783Z,0
2019-03-27T04:24:22.191Z,0
2019-03-27T04:25:02.631Z,0
2019-03-27T04:26:07.615Z,0
2019-03-27T04:26:23.458Z,0
2019-03-27T04:27:03.857Z,0
2019-03-27T04:27:44.306Z,0
2019-03-27T04:28:24.788Z,0
2019-03-27T04:29:05.109Z,0
2019-03-27T05:06:54.188Z,0
2019-03-27T05:07:34.612Z,0
2019-03-27T05:08:15.073Z,0
2019-03-27T05:08:55.433Z,0
2019-03-27T05:09:35.903Z,0
2019-03-27T05:10:16.258Z,0
2019-03-27T05:12:29.034Z,0
2019-03-27T05:13:09.467Z,0
2019-03-27T05:13:49.851Z,0
2019-03-27T05:14:30.276Z,0
2019-03-27T05:15:10.695Z,0
2019-03-27T05:15:51.070Z,0
2019-03-27T05:16:31.528Z,0
2019-03-27T05:17:11.935Z,0
2019-03-27T05:17:52.372Z,0
2019-03-27T05:18:32.777Z,0
2019-03-27T05:19:13.200Z,0
2019-03-27T05:19:53.632Z,0
2019-03-27T05:20:34.005Z,0
2019-03-27T05:21:14.425Z,0
2019-03-27T05:21:54.843Z,0
2019-03-27T05:22:35.253Z,0
2019-03-27T05:23:15.662Z,0
2019-03-27T05:23:56.077Z,0
2019-03-27T05:24:36.487Z,0
2019-03-27T05:25:16.990Z,0
2019-03-27T05:25:57.358Z,0
2019-03-27T05:26:37.781Z,0
2019-03-27T05:27:18.218Z,0
2019-03-27T05:27:58.648Z,0
2019-03-27T05:28:39.129Z,0
2019-03-27T05:29:19.536Z,0
2019-03-27T05:29:59.967Z,0
2019-03-27T05:30:40.407Z,0
2019-03-27T05:31:20.852Z,0
2019-03-27T05:32:01.279Z,0
2019-03-27T05:32:41.717Z,0
2019-03-27T05:33:22.110Z,0
2019-03-27T05:34:02.511Z,0
2019-03-27T05:34:42.957Z,0
2019-03-27T05:35:23.382Z,0
2019-03-27T05:36:03.838Z,0
2019-03-27T05:36:44.255Z,0
2019-03-27T05:37:24.640Z,0
2019-03-27T05:38:05.061Z,0
2019-03-27T05:38:45.528Z,0
2019-03-27T05:39:25.952Z,0
2019-03-27T05:40:06.337Z,0
2019-03-27T05:40:46.753Z,0
2019-03-27T05:41:27.160Z,0
2019-03-27T05:42:07.598Z,0
2019-03-27T05:42:59.934Z,0
2019-03-27T05:43:28.458Z,0
2019-03-27T05:44:08.893Z,5
2019-03-27T05:44:49.316Z,5
2019-03-27T05:45:29.741Z,5
2019-03-27T05:46:10.262Z,5
2019-03-27T05:46:50.566Z,5
2019-03-27T05:47:30.961Z,5
2019-03-27T05:48:11.343Z,5
2019-03-27T05:48:51.837Z,5
2019-03-27T05:49:32.257Z,5
2019-03-27T05:50:12.670Z,5
2019-03-27T05:50:53.111Z,5
2019-03-27T05:51:33.529Z,5
2019-03-27T05:52:13.947Z,5
2019-03-27T05:52:54.333Z,5
2019-03-27T05:53:34.770Z,10
2019-03-27T05:54:15.201Z,10
2019-03-27T05:54:55.580Z,10
2019-03-27T05:55:36.005Z,10
2019-03-27T05:56:16.366Z,10
2019-03-27T05:56:56.747Z,10
2019-03-27T05:57:37.196Z,10
2019-03-27T05:58:17.570Z,10
2019-03-27T05:58:57.981Z,10
2019-03-27T05:59:38.400Z,10
2019-03-27T06:00:18.793Z,10
2019-03-27T06:00:59.205Z,10
2019-03-27T06:01:39.647Z,10
2019-03-27T06:02:20.078Z,10
2019-03-27T06:03:00.477Z,10
2019-03-27T06:03:40.905Z,10
2019-03-27T06:04:21.329Z,10
2019-03-27T06:05:01.743Z,10
2019-03-27T06:05:42.206Z,10
2019-03-27T06:06:22.612Z,10
2019-03-27T06:07:03.030Z,10
2019-03-27T06:07:43.498Z,10
2019-03-27T06:08:25.471Z,10
2019-03-27T06:09:08.038Z,10
2019-03-27T06:09:48.458Z,10
2019-03-27T06:10:28.875Z,10
2019-03-27T06:11:09.329Z,10
2019-03-27T06:11:49.886Z,10
2019-03-27T06:12:30.293Z,10
2019-03-27T06:13:10.778Z,10
2019-03-27T06:13:51.187Z,10
2019-03-27T06:14:31.617Z,10
2019-03-27T06:15:12.031Z,10
2019-03-27T06:15:52.469Z,10
2019-03-27T06:16:32.894Z,10
2019-03-27T06:17:13.311Z,10
2019-03-27T06:17:53.764Z,10
2019-03-27T06:18:34.149Z,10
2019-03-27T06:19:14.553Z,10
2019-03-27T06:19:54.975Z,10
2019-03-27T06:20:35.402Z,10
2019-03-27T06:21:15.799Z,15
2019-03-27T06:21:56.216Z,15
2019-03-27T06:22:36.654Z,15
2019-03-27T06:23:17.071Z,15
2019-03-27T06:23:58.536Z,15
2019-03-27T06:24:38.962Z,20
2019-03-27T06:25:19.382Z,15
2019-03-27T06:25:59.782Z,15
2019-03-27T06:26:40.205Z,15
2019-03-27T06:27:20.652Z,15
2019-03-27T06:28:01.079Z,15
2019-03-27T06:28:41.491Z,15
2019-03-27T06:29:21.898Z,15
2019-03-27T06:30:02.330Z,15
2019-03-27T06:30:42.741Z,15
2019-03-27T06:31:23.687Z,15
2019-03-27T06:32:04.118Z,15
2019-03-27T06:32:44.545Z,20
2019-03-27T06:33:24.946Z,20
2019-03-27T06:34:05.364Z,20
2019-03-27T06:34:45.787Z,20
2019-03-27T06:35:26.227Z,25
2019-03-27T06:36:06.603Z,25
2019-03-27T06:36:47.021Z,25
2019-03-27T06:37:27.447Z,25
2019-03-27T06:38:07.821Z,30
2019-03-27T06:38:48.225Z,30
2019-03-27T06:39:28.615Z,30
2019-03-27T06:40:09.020Z,30
2019-03-27T06:40:49.439Z,35
2019-03-27T06:41:29.857Z,35
2019-03-27T06:42:10.277Z,35
2019-03-27T06:42:50.697Z,35
2019-03-27T06:43:31.133Z,35
2019-03-27T06:44:11.543Z,35
2019-03-27T06:44:51.960Z,35
2019-03-27T06:45:32.395Z,40
2019-03-27T06:46:12.831Z,40
2019-03-27T06:46:53.191Z,40
2019-03-27T06:47:33.601Z,45
2019-03-27T06:48:25.655Z,45
2019-03-27T06:48:54.402Z,65
2019-03-27T06:49:35.434Z,40
2019-03-27T06:50:15.879Z,40
2019-03-27T06:50:56.404Z,40
2019-03-27T06:51:40.155Z,35
2019-03-27T06:54:01.749Z,35
2019-03-27T06:54:42.193Z,35
2019-03-27T06:55:22.692Z,30
2019-03-27T06:56:03.015Z,30
2019-03-27T06:56:44.449Z,30
2019-03-27T06:59:23.193Z,20
2019-03-27T07:00:03.663Z,20
2019-03-27T07:00:44.033Z,15
2019-03-27T07:01:24.586Z,15
2019-03-27T07:02:04.929Z,15
2019-03-27T07:02:45.368Z,20
2019-03-27T07:03:26.994Z,20
2019-03-27T07:04:10.617Z,20
2019-03-27T07:04:46.986Z,20
2019-03-27T07:05:27.359Z,20
2019-03-27T07:06:07.934Z,15
2019-03-27T07:06:49.288Z,15
2019-03-27T07:07:29.647Z,15
2019-03-27T07:08:10.165Z,15
2019-03-27T07:08:50.866Z,15
2019-03-27T07:09:31.303Z,20
2019-03-27T07:10:11.774Z,20
2019-03-27T07:10:52.229Z,20
2019-03-27T07:11:32.742Z,20
2019-03-27T07:12:20.737Z,20
2019-03-27T07:12:53.722Z,25
2019-03-27T07:13:34.164Z,25
2019-03-27T07:14:14.690Z,25
2019-03-27T07:14:56.354Z,25
2019-03-27T07:15:36.027Z,25
2019-03-27T07:16:16.775Z,25
2019-03-27T07:16:57.395Z,25
2019-03-27T07:17:40.426Z,25
2019-03-27T07:20:41.011Z,25
2019-03-27T07:21:19.774Z,25
2019-03-27T07:22:00.378Z,20
2019-03-27T07:22:40.839Z,20
2019-03-27T07:23:21.281Z,20
2019-03-27T07:24:02.100Z,20
2019-03-27T07:24:42.664Z,15
2019-03-27T07:25:22.982Z,15
2019-03-27T07:26:03.425Z,15
2019-03-27T07:26:45.435Z,15
2019-03-27T07:27:25.923Z,15
2019-03-27T07:29:55.074Z,15
2019-03-27T07:30:35.521Z,15
2019-03-27T07:31:16.105Z,15
2019-03-27T07:31:57.999Z,15
2019-03-27T07:32:38.442Z,15
2019-03-27T07:33:18.852Z,10
2019-03-27T07:35:47.803Z,10
2019-03-27T07:36:29.657Z,10
2019-03-27T07:37:10.966Z,10
2019-03-27T07:37:55.484Z,10
2019-03-27T07:38:36.312Z,10
2019-03-27T07:39:17.655Z,10
2019-03-27T07:39:57.440Z,10
2019-03-27T07:40:38.710Z,10
2019-03-27T07:41:19.735Z,10
2019-03-27T07:42:00.288Z,10
2019-03-27T07:42:41.668Z,10
2019-03-27T07:43:22.142Z,10
2019-03-27T07:44:02.612Z,10
2019-03-27T07:44:44.483Z,10
2019-03-27T07:45:24.204Z,10
2019-03-27T07:46:04.739Z,10
2019-03-27T07:46:45.671Z,10
2019-03-27T07:47:26.559Z,10
2019-03-27T07:48:07.683Z,10
2019-03-27T07:48:53.530Z,10
2019-03-27T07:49:28.336Z,10
2019-03-27T07:50:08.889Z,10
2019-03-27T07:50:49.369Z,10
2019-03-27T07:51:30.665Z,10
2019-03-27T07:52:10.598Z,10
2019-03-27T07:52:51.210Z,10
2019-03-27T07:53:32.173Z,15
2019-03-27T07:54:13.866Z,15
2019-03-27T07:54:55.096Z,15
2019-03-27T07:55:55.136Z,15
2019-03-27T07:56:42.373Z,15
2019-03-27T07:57:22.822Z,15
2019-03-27T07:58:03.218Z,15
2019-03-27T07:58:43.596Z,15
2019-03-27T07:59:24.359Z,15
2019-03-27T08:00:04.805Z,15
2019-03-27T08:00:46.135Z,15
2019-03-27T08:01:27.457Z,15
2019-03-27T08:02:08.806Z,15
2019-03-27T08:02:48.994Z,15
2019-03-27T08:03:29.509Z,15
2019-03-27T08:04:14.338Z,15
2019-03-27T08:04:54.144Z,15
2019-03-27T08:05:34.155Z,15
2019-03-27T08:06:14.289Z,15
2019-03-27T08:06:54.927Z,15
2019-03-27T08:07:36.667Z,15
2019-03-27T08:08:16.637Z,15
2019-03-27T08:08:57.443Z,15
2019-03-27T08:09:37.983Z,15
2019-03-27T08:10:22.824Z,15
2019-03-27T08:11:06.838Z,15
2019-03-27T08:11:47.516Z,15
2019-03-27T08:12:28.658Z,15
2019-03-27T08:13:12.106Z,20
2019-03-27T08:13:52.273Z,20
2019-03-27T08:15:13.537Z,20
2019-03-27T08:15:54.039Z,20
2019-03-27T08:16:34.596Z,20
2019-03-27T08:17:15.225Z,20
2019-03-27T08:17:55.573Z,20
2019-03-27T08:18:36.173Z,20
2019-03-27T08:19:17.290Z,20
2019-03-27T08:20:53.243Z,20
2019-03-27T08:21:33.699Z,20
2019-03-27T08:22:14.155Z,20
2019-03-27T08:22:54.608Z,20
2019-03-27T08:23:35.047Z,20
2019-03-27T08:24:15.467Z,20
2019-03-27T08:24:55.961Z,20
2019-03-27T08:25:37.528Z,25
2019-03-27T08:26:17.994Z,25
2019-03-27T08:26:58.417Z,25
2019-03-27T08:27:38.887Z,25
2019-03-27T08:28:19.441Z,25
2019-03-27T08:28:59.888Z,25
2019-03-27T08:29:40.425Z,25
2019-03-27T08:30:21.900Z,25
2019-03-27T08:31:02.480Z,25
2019-03-27T08:31:42.815Z,25
2019-03-27T08:32:23.238Z,25
2019-03-27T08:33:03.712Z,25
2019-03-27T08:33:44.153Z,25
2019-03-27T08:34:24.801Z,25
2019-03-27T08:35:05.210Z,25
2019-03-27T08:35:46.434Z,25
2019-03-27T08:36:27.100Z,30
2019-03-27T08:37:07.604Z,30
2019-03-27T08:37:48.510Z,30
2019-03-27T08:38:29.291Z,30
2019-03-27T08:39:09.860Z,30
2019-03-27T08:39:50.233Z,30
2019-03-27T08:40:30.667Z,30
2019-03-27T08:41:12.109Z,30
2019-03-27T08:41:52.497Z,30
2019-03-27T08:42:32.920Z,30
2019-03-27T08:43:20.911Z,30
2019-03-27T08:43:54.253Z,30
2019-03-27T08:44:34.873Z,30
2019-03-27T08:45:15.380Z,30
2019-03-27T08:45:55.956Z,30
2019-03-27T08:46:39.318Z,30
2019-03-27T08:47:19.776Z,30
2019-03-27T08:48:00.726Z,30
2019-03-27T08:48:45.399Z,30
2019-03-27T08:49:26.499Z,30
2019-03-27T08:50:06.744Z,30
2019-03-27T08:50:47.299Z,30
2019-03-27T08:51:29.786Z,30
2019-03-27T08:52:11.196Z,30
2019-03-27T08:52:51.226Z,30
2019-03-27T08:53:32.167Z,30
2019-03-27T08:54:12.926Z,30
2019-03-27T08:54:53.572Z,35
2019-03-27T08:55:35.328Z,35
2019-03-27T08:56:14.993Z,35
2019-03-27T08:56:55.995Z,40
2019-03-27T08:57:37.153Z,40
2019-03-27T08:58:17.412Z,40
2019-03-27T08:58:58.817Z,40
2019-03-27T08:59:41.300Z,45
2019-03-27T09:00:21.393Z,45
2019-03-27T09:01:02.155Z,45
2019-03-27T09:01:42.626Z,45
2019-03-27T09:02:23.259Z,45
2019-03-27T09:03:03.676Z,45
2019-03-27T09:03:44.401Z,45
2019-03-27T09:04:28.710Z,45
2019-03-27T09:05:08.583Z,45
2019-03-27T09:05:49.123Z,45
2019-03-27T09:06:33.787Z,45
2019-03-27T09:07:11.450Z,50
2019-03-27T09:07:52.261Z,50
2019-03-27T09:10:33.555Z,50
2019-03-27T09:11:14.520Z,55
2019-03-27T09:11:56.776Z,55
2019-03-27T09:12:36.157Z,55
2019-03-27T09:13:17.012Z,55
2019-03-27T09:13:58.094Z,55
2019-03-27T09:14:38.391Z,55
2019-03-27T09:15:18.951Z,50
2019-03-27T09:15:59.637Z,50
2019-03-27T09:16:40.274Z,50
2019-03-27T09:17:21.596Z,50
2019-03-27T09:18:01.703Z,50
2019-03-27T09:18:43.101Z,50
2019-03-27T09:19:34.837Z,55
2019-03-27T09:20:04.612Z,75
2019-03-27T09:20:45.413Z,70
2019-03-27T09:21:26.616Z,60
2019-03-27T09:22:07.953Z,85
2019-03-27T09:22:49.082Z,85
2019-03-27T09:23:29.585Z,90
2019-03-27T09:24:10.650Z,90
2019-03-27T09:24:51.122Z,90
2019-03-27T09:25:31.621Z,90
2019-03-27T09:26:12.271Z,90
2019-03-27T09:26:52.605Z,85
2019-03-27T09:27:33.036Z,85
2019-03-27T09:28:13.471Z,85
2019-03-27T09:28:53.916Z,90
2019-03-27T09:29:34.382Z,85
2019-03-27T09:30:14.986Z,85
2019-03-27T09:30:55.452Z,85
2019-03-27T09:31:44.374Z,90
2019-03-27T09:32:16.556Z,85
2019-03-27T09:32:56.935Z,85
2019-03-27T09:33:37.415Z,85
2019-03-27T09:34:17.878Z,85
2019-03-27T09:34:58.298Z,85
2019-03-27T09:35:38.719Z,85
2019-03-27T09:36:20.025Z,85
2019-03-27T09:37:00.485Z,85
2019-03-27T09:37:41.532Z,85
2019-03-27T09:38:21.954Z,85
2019-03-27T09:39:02.378Z,85
2019-03-27T09:39:42.858Z,85
2019-03-27T09:40:23.311Z,85
2019-03-27T09:41:03.706Z,85
2019-03-27T09:41:44.115Z,85
2019-03-27T09:42:24.587Z,85
2019-03-27T09:43:07.832Z,85
2019-03-27T09:43:48.900Z,85
2019-03-27T09:44:29.404Z,85
2019-03-27T09:45:09.835Z,85
2019-03-27T09:45:50.307Z,85
2019-03-27T09:46:30.739Z,85
2019-03-27T09:47:11.332Z,85
2019-03-27T09:47:51.705Z,85
2019-03-27T09:48:32.290Z,85
2019-03-27T09:49:12.748Z,80
2019-03-27T09:49:53.138Z,60
2019-03-27T09:50:34.127Z,55
2019-03-27T09:51:14.557Z,60
2019-03-27T09:51:54.961Z,65
2019-03-27T09:52:35.372Z,80
2019-03-27T09:53:15.805Z,85
2019-03-27T09:53:56.238Z,85
2019-03-27T09:54:36.670Z,85
2019-03-27T09:55:17.108Z,85
2019-03-27T09:55:57.563Z,85
2019-03-27T09:56:37.997Z,85
2019-03-27T09:57:18.419Z,85
2019-03-27T09:57:58.841Z,85
2019-03-27T10:00:36.774Z,80
2019-03-27T10:01:17.278Z,80
2019-03-27T10:01:57.609Z,75
2019-03-27T10:02:38.047Z,55
2019-03-27T10:03:18.467Z,55
2019-03-27T10:03:59.090Z,55
2019-03-27T10:04:39.542Z,50
2019-03-27T10:05:19.954Z,50
2019-03-27T10:06:00.378Z,50
2019-03-27T10:06:40.794Z,50
2019-03-27T10:07:21.273Z,50
2019-03-27T10:08:01.898Z,45
2019-03-27T10:08:42.305Z,45
2019-03-27T10:09:22.725Z,45
2019-03-27T10:10:03.148Z,45
2019-03-27T10:10:43.586Z,45
2019-03-27T10:11:24.049Z,45
2019-03-27T10:12:04.447Z,45
2019-03-27T10:12:44.866Z,40
2019-03-27T10:13:25.270Z,40
2019-03-27T10:14:05.732Z,40
2019-03-27T10:14:47.633Z,40
2019-03-27T10:15:26.609Z,40
2019-03-27T10:16:07.056Z,45
2019-03-27T10:16:47.503Z,45
2019-03-27T10:19:05.988Z,45
2019-03-27T10:19:46.936Z,45
2019-03-27T10:20:27.324Z,45
2019-03-27T10:21:07.845Z,45
2019-03-27T10:21:49.086Z,45
2019-03-27T10:22:30.243Z,45
2019-03-27T10:23:10.192Z,45
2019-03-27T10:23:51.137Z,45
2019-03-27T10:24:33.087Z,45
2019-03-27T10:25:13.573Z,45
2019-03-27T10:25:54.256Z,45
2019-03-27T10:26:35.923Z,45
2019-03-27T10:27:16.398Z,45
2019-03-27T10:27:56.869Z,50
2019-03-27T10:28:37.263Z,50
2019-03-27T10:29:17.755Z,50
2019-03-27T11:07:38.701Z,45
2019-03-27T11:08:18.470Z,45
2019-03-27T11:08:58.918Z,45
2019-03-27T11:09:39.346Z,45
2019-03-27T11:10:19.779Z,45
2019-03-27T11:11:00.209Z,45
2019-03-27T11:11:40.665Z,45
2019-03-27T11:12:21.194Z,45
2019-03-27T11:13:01.671Z,45
2019-03-27T11:13:42.073Z,45
2019-03-27T11:14:22.533Z,45
2019-03-27T11:15:04.733Z,45
2019-03-27T11:15:45.225Z,45
2019-03-27T11:16:26.084Z,45
2019-03-27T11:17:07.876Z,45
2019-03-27T11:17:47.691Z,45
2019-03-27T11:18:29.700Z,45
2019-03-27T11:19:10.244Z,45
2019-03-27T11:19:51.197Z,45
2019-03-27T11:20:31.922Z,45
2019-03-27T11:21:12.316Z,45
2019-03-27T11:21:52.735Z,45
2019-03-27T11:22:33.141Z,45
2019-03-27T11:23:13.583Z,45
2019-03-27T11:23:53.985Z,45
2019-03-27T11:24:34.401Z,45
2019-03-27T11:25:14.851Z,45